Time;durP1;ratioP1;P1;durP2;ratioP2;P2;SDS_P1;SDS_P2;PMS_P1;PMS_P2;Temp;Humidity;BMP_temperature;BMP_pressure;BME280_temperature;BME280_humidity;BME280_pressure;Samples;Min_cycle;Max_cycle;Signal;HPM_P1;HPM_P2
2021/11/11 00:00:50;;;;;;;38.92;18.13;;;;;;;8.86;95.55;102453.78;4999115;28;20121;-75
2021/11/11 00:03:20;;;;;;;33.97;17.88;;;;;;;8.85;95.71;102444.00;4994767;28;20049;-75
2021/11/11 00:05:49;;;;;;;41.75;19.88;;;;;;;8.81;96.13;102445.78;4997334;28;20136;-75
2021/11/11 00:08:17;;;;;;;34.50;17.65;;;;;;;8.86;95.91;102448.44;4994495;28;20054;-75
2021/11/11 00:10:46;;;;;;;37.63;18.15;;;;;;;8.85;96.13;102446.66;4999088;28;20073;-75
2021/11/11 00:13:14;;;;;;;41.53;17.45;;;;;;;8.83;95.75;102451.09;4993470;28;20140;-74
2021/11/11 00:15:42;;;;;;;37.22;19.02;;;;;;;8.83;95.38;102449.31;4997707;28;20534;-75
2021/11/11 00:18:10;;;;;;;35.65;17.38;;;;;;;8.85;96.36;102449.31;4996881;28;20584;-76
2021/11/11 00:20:41;;;;;;;42.95;20.83;;;;;;;8.82;96.44;102441.34;4992620;28;20124;-76
2021/11/11 00:23:09;;;;;;;42.33;19.05;;;;;;;8.82;96.56;102439.59;4996300;28;20056;-77
2021/11/11 00:25:37;;;;;;;38.05;17.95;;;;;;;8.83;96.32;102443.13;4994282;28;20442;-75
2021/11/11 00:28:06;;;;;;;37.50;17.17;;;;;;;8.84;96.22;102447.56;4998720;28;20532;-75
2021/11/11 00:30:34;;;;;;;35.53;17.98;;;;;;;8.83;96.18;102438.69;4993430;28;20145;-75
2021/11/11 00:33:03;;;;;;;41.92;19.00;;;;;;;8.83;96.34;102440.47;4996923;28;20046;-68
2021/11/11 00:35:34;;;;;;;40.03;18.85;;;;;;;8.82;96.45;102446.66;4995720;28;20255;-68
2021/11/11 00:38:05;;;;;;;38.72;19.17;;;;;;;8.83;96.35;102445.78;4998079;28;20053;-68
2021/11/11 00:40:35;;;;;;;36.85;17.65;;;;;;;8.81;96.33;102448.44;4995124;28;20490;-67
2021/11/11 00:43:11;;;;;;;35.90;17.17;;;;;;;8.81;96.28;102445.78;4996505;28;20064;-70
2021/11/11 00:45:42;;;;;;;38.58;18.30;;;;;;;8.81;96.32;102453.75;4991108;28;20109;-70
2021/11/11 00:48:10;;;;;;;44.00;18.70;;;;;;;8.82;96.59;102450.22;4994394;28;20069;-76
2021/11/11 00:50:38;;;;;;;41.45;18.50;;;;;;;8.82;97.10;102452.88;4997691;28;20034;-75
2021/11/11 00:53:17;;;;;;;37.78;17.83;;;;;;;8.82;97.12;102449.31;4993738;28;20053;-68
2021/11/11 00:55:45;;;;;;;40.72;19.13;;;;;;;8.82;97.22;102444.91;4994474;28;20050;-75
2021/11/11 00:58:13;;;;;;;41.20;20.45;;;;;;;8.82;97.24;102450.22;4992905;28;20061;-77
2021/11/11 01:00:41;;;;;;;36.88;17.45;;;;;;;8.81;97.27;102451.09;4994313;28;20482;-77
2021/11/11 01:03:11;;;;;;;38.30;19.42;;;;;;;8.81;97.20;102448.44;4992217;28;20120;-76
2021/11/11 01:05:39;;;;;;;34.78;19.52;;;;;;;8.82;96.66;102454.63;4994900;28;20053;-77
2021/11/11 01:08:09;;;;;;;36.80;17.85;;;;;;;8.83;97.25;102443.13;4995500;28;20092;-75
2021/11/11 01:10:37;;;;;;;45.97;19.85;;;;;;;8.81;97.21;102445.78;4997618;28;20073;-74
2021/11/11 01:13:05;;;;;;;34.47;18.20;;;;;;;8.82;97.40;102452.88;4994554;28;20053;-75
2021/11/11 01:15:34;;;;;;;40.22;19.52;;;;;;;8.82;97.90;102455.56;4993057;28;20116;-77
2021/11/11 01:18:05;;;;;;;34.08;18.10;;;;;;;8.83;97.84;102453.78;4996630;28;20053;-75
2021/11/11 01:20:33;;;;;;;45.15;20.05;;;;;;;8.83;97.72;102459.97;4992477;28;20064;-77
2021/11/11 01:23:01;;;;;;;37.38;19.08;;;;;;;8.82;98.12;102454.63;4994459;28;20061;-75
2021/11/11 01:25:34;;;;;;;31.95;17.15;;;;;;;8.83;98.55;102451.09;4992805;28;20085;-75
2021/11/11 01:28:01;;;;;;;40.15;19.50;;;;;;;8.83;98.44;102451.09;4996940;28;20470;-75
2021/11/11 01:30:29;;;;;;;42.25;18.80;;;;;;;8.82;98.66;102447.56;4992679;28;21312;-75
2021/11/11 01:32:58;;;;;;;38.55;19.52;;;;;;;8.84;98.83;102447.56;4995451;28;21356;-75
2021/11/11 01:35:26;;;;;;;38.33;19.13;;;;;;;8.82;98.98;102450.22;4994356;28;20069;-75
2021/11/11 01:37:54;;;;;;;42.25;19.70;;;;;;;8.82;98.68;102444.91;4997481;28;20045;-77
2021/11/11 01:40:23;;;;;;;40.80;19.75;;;;;;;8.81;99.18;102431.59;4995008;28;20270;-76
2021/11/11 01:42:54;;;;;;;37.90;17.83;;;;;;;8.79;98.93;102427.13;4992311;28;20092;-77
2021/11/11 01:45:26;;;;;;;39.20;18.33;;;;;;;8.82;98.96;102433.34;4995540;28;20577;-68
2021/11/11 01:48:00;;;;;;;39.35;18.60;;;;;;;8.79;99.01;102426.25;4991026;28;20462;-69
2021/11/11 01:50:30;;;;;;;37.20;17.77;;;;;;;8.80;99.36;102425.34;4996345;28;20426;-68
2021/11/11 01:53:02;;;;;;;41.22;17.55;;;;;;;8.78;98.77;102412.06;4993132;28;20079;-68
2021/11/11 01:55:37;;;;;;;44.47;18.73;;;;;;;8.78;98.77;102412.06;4998449;28;20046;-68
2021/11/11 01:58:07;;;;;;;38.78;18.92;;;;;;;8.78;98.73;102408.50;4994691;28;20057;-75
2021/11/11 02:00:39;;;;;;;41.67;20.33;;;;;;;8.78;98.10;102412.06;4998273;28;20095;-75
2021/11/11 02:03:08;;;;;;;43.55;19.80;;;;;;;8.82;98.03;102412.97;4996367;28;20053;-75
2021/11/11 02:05:37;;;;;;;46.25;19.77;;;;;;;8.81;97.79;102412.97;4994482;28;20046;-75
2021/11/11 02:08:05;;;;;;;38.78;18.23;;;;;;;8.80;98.30;102398.75;5002938;28;20065;-75
2021/11/11 02:10:34;;;;;;;37.97;18.02;;;;;;;8.81;98.21;102407.63;4993704;28;20113;-75
2021/11/11 02:13:04;;;;;;;37.08;18.58;;;;;;;8.79;98.83;102396.97;4998734;28;20070;-75
2021/11/11 02:15:34;;;;;;;40.25;18.75;;;;;;;8.78;98.37;102397.84;4996495;28;20045;-75
2021/11/11 02:18:03;;;;;;;41.72;18.85;;;;;;;8.77;98.72;102390.78;4998706;28;20065;-75
2021/11/11 02:20:35;;;;;;;37.83;18.40;;;;;;;8.76;98.75;102400.50;4996085;28;20045;-75
2021/11/11 02:23:06;;;;;;;37.10;16.65;;;;;;;8.77;98.92;102396.97;4997482;28;20176;-76
2021/11/11 02:25:33;;;;;;;39.70;19.48;;;;;;;8.76;99.16;102396.97;4997064;28;20057;-75
2021/11/11 02:28:05;;;;;;;41.30;16.90;;;;;;;8.75;99.25;102406.75;4993921;28;20414;-75
2021/11/11 02:30:34;;;;;;;35.10;16.63;;;;;;;8.75;99.46;102412.06;5000199;28;20142;-75
2021/11/11 02:33:08;;;;;;;41.55;18.95;;;;;;;8.74;99.66;102407.63;4993687;28;20092;-75
2021/11/11 02:35:37;;;;;;;39.47;17.80;;;;;;;8.75;99.41;102408.50;4998609;28;20529;-75
2021/11/11 02:38:06;;;;;;;36.78;17.35;;;;;;;8.74;99.43;102404.09;4997375;28;21649;-75
2021/11/11 02:40:35;;;;;;;42.22;19.10;;;;;;;8.72;99.52;102396.09;4999800;28;20061;-75
2021/11/11 02:43:04;;;;;;;35.78;17.10;;;;;;;8.72;99.70;102397.88;4997771;28;20517;-75
2021/11/11 02:45:35;;;;;;;36.58;17.70;;;;;;;8.70;99.90;102395.22;5000227;28;20093;-75
2021/11/11 02:48:06;;;;;;;39.78;18.00;;;;;;;8.71;100.00;102399.63;4996956;28;20050;-76
2021/11/11 02:50:38;;;;;;;;;;;;;;;8.71;99.39;102393.44;4998289;28;20038;-76
2021/11/11 02:53:08;;;;;;;31.77;16.95;;;;;;;8.71;99.80;102388.97;4994612;28;20062;-76
2021/11/11 02:55:37;;;;;;;44.05;19.50;;;;;;;8.70;99.53;102399.63;4995660;28;20482;-76
2021/11/11 02:58:06;;;;;;;40.88;18.13;;;;;;;8.73;99.37;102399.63;5000013;28;20053;-76
2021/11/11 03:00:41;;;;;;;40.00;18.48;;;;;;;8.69;99.57;102396.09;4993462;28;20042;-76
2021/11/11 03:03:09;;;;;;;35.40;17.98;;;;;;;8.70;99.58;102396.97;4999584;28;20069;-76
2021/11/11 03:05:40;;;;;;;44.63;19.05;;;;;;;8.70;99.88;102396.97;4994395;28;20116;-76
2021/11/11 03:08:09;;;;;;;41.80;19.30;;;;;;;8.68;100.00;102399.63;5000232;28;20229;-76
2021/11/11 03:10:41;;;;;;;39.83;18.33;;;;;;;8.66;100.00;102393.41;4994807;28;20263;-76
2021/11/11 03:13:10;;;;;;;41.20;17.75;;;;;;;8.66;100.00;102397.88;4999205;28;20442;-75
2021/11/11 03:15:38;;;;;;;48.35;19.00;;;;;;;8.63;100.00;102396.06;4994816;28;20065;-76
2021/11/11 03:18:06;;;;;;;35.67;18.10;;;;;;;8.64;100.00;102396.97;4997199;28;20046;-76
2021/11/11 03:20:34;;;;;;;34.83;16.70;;;;;;;8.63;100.00;102395.19;4994295;28;20057;-75
2021/11/11 03:23:05;;;;;;;40.42;17.63;;;;;;;8.62;100.00;102390.78;4991991;28;20050;-76
2021/11/11 03:25:35;;;;;;;41.58;18.25;;;;;;;8.61;100.00;102400.50;4999441;28;20046;-76
2021/11/11 03:28:05;;;;;;;40.88;17.98;;;;;;;8.58;100.00;102400.50;4994286;28;20379;-75
2021/11/11 03:30:34;;;;;;;36.92;18.83;;;;;;;8.60;100.00;102404.06;4997722;28;20057;-69
2021/11/11 03:33:08;;;;;;;41.13;18.10;;;;;;;8.62;100.00;102409.41;4995424;28;20141;-69
2021/11/11 03:35:40;;;;;;;38.85;17.80;;;;;;;8.62;100.00;102410.28;4995320;28;20116;-69
2021/11/11 03:38:14;;;;;;;38.87;18.83;;;;;;;8.59;100.00;102405.81;4995700;28;20085;-69
2021/11/11 03:40:47;;;;;;;36.13;17.35;;;;;;;8.60;100.00;102406.75;4997800;28;20398;-75
2021/11/11 03:43:16;;;;;;;36.15;18.25;;;;;;;8.60;100.00;102412.94;4993759;28;20452;-75
2021/11/11 03:45:46;;;;;;;39.47;18.35;;;;;;;8.61;100.00;102405.84;4992536;28;20159;-69
2021/11/11 03:48:17;;;;;;;33.92;16.65;;;;;;;8.62;100.00;102402.28;4999185;28;20124;-69
2021/11/11 03:50:47;;;;;;;39.15;18.38;;;;;;;8.64;100.00;102402.31;4993733;28;20449;-69
2021/11/11 03:53:20;;;;;;;36.90;18.27;;;;;;;8.63;100.00;102411.16;4997126;28;20868;-69
2021/11/11 03:55:49;;;;;;;37.47;17.60;;;;;;;8.63;100.00;102405.84;4993131;28;20485;-69
2021/11/11 03:58:18;;;;;;;46.75;19.38;;;;;;;8.61;100.00;102397.84;4998000;28;20285;-69
2021/11/11 04:00:47;;;;;;;42.13;19.50;;;;;;;8.62;100.00;102404.09;4995142;28;20069;-69
2021/11/11 04:03:19;;;;;;;35.50;19.00;;;;;;;8.61;100.00;102411.16;4992965;28;20482;-69
2021/11/11 04:05:48;;;;;;;40.58;19.27;;;;;;;8.62;100.00;102396.09;4993084;28;20053;-68
2021/11/11 04:08:19;;;;;;;43.08;20.65;;;;;;;8.62;100.00;102406.75;4993224;28;20077;-69
2021/11/11 04:10:48;;;;;;;42.25;18.83;;;;;;;8.62;100.00;102406.75;4999057;28;20053;-70
2021/11/11 04:13:22;;;;;;;43.10;19.58;;;;;;;8.63;100.00;102420.00;4991785;28;20679;-70
2021/11/11 04:15:51;;;;;;;47.67;23.23;;;;;;;8.63;100.00;102422.69;4998125;28;20038;-69
2021/11/11 04:18:23;;;;;;;44.42;21.55;;;;;;;8.62;100.00;102420.94;5023096;28;20070;-70
2021/11/11 04:20:57;;;;;;;46.78;21.13;;;;;;;8.62;100.00;102430.69;4996502;28;20049;-70
2021/11/11 04:23:32;;;;;;;;;;;;;;;8.62;100.00;102428.03;4997913;28;20588;-68
2021/11/11 04:26:06;;;;;;;47.85;21.92;;;;;;;8.62;100.00;102420.94;4997758;28;21156;-70
2021/11/11 04:28:45;;;;;;;40.63;21.15;;;;;;;8.61;100.00;102419.13;4991987;28;20049;-68
2021/11/11 04:31:22;;;;;;;39.85;20.30;;;;;;;8.61;100.00;102416.47;4991710;28;20141;-68
2021/11/11 04:33:54;;;;;;;45.92;21.60;;;;;;;8.60;100.00;102418.25;4996966;28;20072;-68
2021/11/11 04:36:55;;;;;;;43.70;21.42;;;;;;;8.61;100.00;102419.13;4992562;28;20042;-70
2021/11/11 04:42:35;;;;;;;42.17;20.77;;;;;;;8.63;100.00;102409.38;5000706;28;20049;-68
2021/11/11 04:48:02;;;;;;;46.28;21.80;;;;;;;8.62;100.00;102398.75;4995491;28;20127;-68
2021/11/11 04:50:56;;;;;;;44.78;21.40;;;;;;;8.60;100.00;102396.09;4993216;28;20120;-68
2021/11/11 05:01:45;;;;;;;45.92;22.58;;;;;;;8.62;100.00;102406.75;4995350;28;20202;-68
2021/11/11 05:04:13;;;;;;;44.28;21.42;;;;;;;8.62;100.00;102410.28;4993214;28;20058;-68
2021/11/11 05:06:43;;;;;;;39.13;20.77;;;;;;;8.62;100.00;102412.06;4995557;28;20430;-69
2021/11/11 05:09:10;;;;;;;40.92;21.33;;;;;;;8.62;100.00;102415.59;4993900;28;20081;-68
2021/11/11 05:11:40;;;;;;;41.05;20.58;;;;;;;8.64;100.00;102421.81;4995642;28;20053;-68
2021/11/11 05:14:08;;;;;;;42.35;21.85;;;;;;;8.60;100.00;102420.03;4991925;28;20092;-68
2021/11/11 05:16:36;;;;;;;45.42;21.80;;;;;;;8.60;100.00;102414.72;4996010;28;20054;-68
2021/11/11 05:19:04;;;;;;;38.08;20.75;;;;;;;8.61;100.00;102419.13;4995267;28;20172;-68
2021/11/11 05:21:32;;;;;;;43.35;22.80;;;;;;;8.62;100.00;102420.94;4992160;28;20135;-68
2021/11/11 05:24:00;;;;;;;41.30;22.33;;;;;;;8.61;100.00;102419.13;4998133;28;20054;-70
2021/11/11 05:26:31;;;;;;;41.40;21.58;;;;;;;8.62;100.00;102418.25;4995269;28;20148;-70
2021/11/11 05:29:03;;;;;;;47.42;22.67;;;;;;;8.62;100.00;102420.94;5000570;28;20046;-70
2021/11/11 05:31:39;;;;;;;44.60;22.42;;;;;;;8.59;100.00;102413.81;4997171;28;20049;-69
2021/11/11 05:34:08;;;;;;;45.00;22.27;;;;;;;8.62;100.00;102420.94;4995861;28;20089;-69
2021/11/11 05:36:36;;;;;;;46.85;23.05;;;;;;;8.62;100.00;102420.03;4996767;28;20053;-75
2021/11/11 05:39:04;;;;;;;43.55;23.13;;;;;;;8.62;100.00;102417.38;5000841;28;20104;-75
2021/11/11 05:41:33;;;;;;;45.10;21.15;;;;;;;8.65;100.00;102425.34;4997032;28;20424;-76
2021/11/11 05:44:02;;;;;;;43.03;20.67;;;;;;;8.66;100.00;102425.34;5000205;28;20100;-76
2021/11/11 05:46:30;;;;;;;46.55;24.27;;;;;;;8.65;100.00;102422.69;4997275;28;20134;-75
2021/11/11 05:48:59;;;;;;;43.67;24.02;;;;;;;8.67;100.00;102412.97;4994887;28;22897;-75
2021/11/11 05:51:27;;;;;;;41.13;23.20;;;;;;;8.65;100.00;102412.03;4998733;28;20131;-75
2021/11/11 05:53:55;;;;;;;46.55;23.70;;;;;;;8.68;100.00;102420.03;4993968;28;20058;-74
2021/11/11 05:56:23;;;;;;;42.97;24.27;;;;;;;8.71;100.00;102423.59;5000184;28;20057;-74
2021/11/11 05:58:54;;;;;;;49.47;23.92;;;;;;;8.72;100.00;102428.03;4997372;28;20214;-75
2021/11/11 06:01:25;;;;;;;45.38;23.23;;;;;;;8.72;100.00;102429.81;5000731;28;20099;-74
2021/11/11 06:03:54;;;;;;;46.42;21.30;;;;;;;8.71;100.00;102420.03;4996797;28;20054;-75
2021/11/11 06:06:21;;;;;;;46.03;23.48;;;;;;;8.70;100.00;102418.25;5000171;28;20081;-75
2021/11/11 06:08:49;;;;;;;46.63;25.80;;;;;;;8.69;100.00;102422.69;4996058;28;20060;-75
2021/11/11 06:11:17;;;;;;;43.13;23.55;;;;;;;8.68;100.00;102422.69;4999145;28;20123;-75
2021/11/11 06:13:45;;;;;;;48.95;24.92;;;;;;;8.66;100.00;102429.78;4995061;28;20125;-75
2021/11/11 06:16:13;;;;;;;47.30;24.38;;;;;;;8.69;100.00;102427.16;4997684;28;20058;-77
2021/11/11 06:18:42;;;;;;;48.90;23.38;;;;;;;8.68;100.00;102425.34;4998639;28;20053;-75
2021/11/11 06:21:11;;;;;;;52.70;23.50;;;;;;;8.70;100.00;102427.16;4993777;28;20516;-75
2021/11/11 06:23:39;;;;;;;52.47;24.67;;;;;;;8.70;100.00;102428.91;4994851;28;20054;-74
2021/11/11 06:26:07;;;;;;;48.90;23.23;;;;;;;8.69;100.00;102430.69;4995241;28;20107;-77
2021/11/11 06:28:36;;;;;;;40.95;21.63;;;;;;;8.73;100.00;102436.88;4997365;28;20173;-71
2021/11/11 06:31:05;;;;;;;47.60;23.67;;;;;;;8.73;100.00;102436.88;4995460;28;20104;-69
2021/11/11 06:33:33;;;;;;;43.30;23.92;;;;;;;8.73;100.00;102437.78;4997591;28;20544;-69
2021/11/11 06:36:02;;;;;;;41.78;23.63;;;;;;;8.74;100.00;102438.69;4995775;28;20141;-69
2021/11/11 06:38:31;;;;;;;48.53;24.02;;;;;;;8.76;100.00;102440.44;4998150;28;20409;-76
2021/11/11 06:40:59;;;;;;;43.95;22.63;;;;;;;8.76;100.00;102451.09;4996595;28;20084;-76
2021/11/11 06:43:27;;;;;;;46.05;24.42;;;;;;;8.76;100.00;102453.75;4999529;28;20050;-76
2021/11/11 06:45:55;;;;;;;47.42;23.67;;;;;;;8.76;100.00;102456.41;4994930;28;20049;-76
2021/11/11 06:48:23;;;;;;;38.95;24.08;;;;;;;8.77;100.00;102452.88;4993832;28;20106;-76
2021/11/11 06:50:51;;;;;;;45.90;23.30;;;;;;;8.77;100.00;102452.00;4998946;28;20057;-76
2021/11/11 06:53:21;;;;;;;43.42;23.52;;;;;;;8.79;100.00;102461.75;4993282;28;20057;-76
2021/11/11 06:55:49;;;;;;;43.00;24.00;;;;;;;8.80;100.00;102459.97;4999422;28;20186;-76
2021/11/11 06:58:21;;;;;;;45.45;23.52;;;;;;;8.81;100.00;102469.72;4993130;28;21501;-76
2021/11/11 07:00:50;;;;;;;50.38;25.65;;;;;;;8.82;100.00;102467.94;4998591;28;20049;-76
2021/11/11 07:03:20;;;;;;;50.35;23.92;;;;;;;8.83;100.00;102470.63;4996655;28;20212;-76
2021/11/11 07:05:49;;;;;;;43.78;23.23;;;;;;;8.84;100.00;102474.19;4998551;28;20241;-76
2021/11/11 07:08:17;;;;;;;48.75;24.08;;;;;;;8.87;100.00;102476.81;4996522;28;20151;-76
2021/11/11 07:10:50;;;;;;;47.55;24.65;;;;;;;8.86;100.00;102473.28;4997868;28;20050;-76
2021/11/11 07:13:19;;;;;;;42.30;21.10;;;;;;;8.92;100.00;102472.41;4992694;28;20282;-76
2021/11/11 07:15:47;;;;;;;42.72;23.10;;;;;;;8.90;100.00;102469.72;4994931;28;20092;-76
2021/11/11 07:18:16;;;;;;;46.28;24.30;;;;;;;8.91;100.00;102471.53;4999749;28;20054;-76
2021/11/11 07:20:46;;;;;;;52.95;25.83;;;;;;;8.90;100.00;102480.38;4992389;28;20143;-75
2021/11/11 07:23:16;;;;;;;42.50;23.98;;;;;;;8.93;100.00;102483.06;4998816;28;20148;-77
2021/11/11 07:25:45;;;;;;;49.40;23.65;;;;;;;8.95;100.00;102488.38;4993686;28;20141;-77
2021/11/11 07:28:15;;;;;;;43.35;23.55;;;;;;;8.96;100.00;102491.03;4997196;28;20065;-76
2021/11/11 07:30:44;;;;;;;45.00;23.38;;;;;;;8.97;100.00;102489.25;4997018;28;20041;-75
2021/11/11 07:33:12;;;;;;;45.17;24.25;;;;;;;8.97;100.00;102489.25;4998731;28;20494;-76
2021/11/11 07:35:41;;;;;;;45.33;22.77;;;;;;;8.99;100.00;102487.50;4993930;28;20044;-75
2021/11/11 07:38:09;;;;;;;45.25;24.70;;;;;;;9.02;100.00;102487.50;4997194;28;20054;-76
2021/11/11 07:40:38;;;;;;;48.95;25.25;;;;;;;9.03;100.00;102491.06;4993581;28;20049;-69
2021/11/11 07:43:07;;;;;;;43.60;22.35;;;;;;;9.07;100.00;102485.72;4992308;28;20123;-69
2021/11/11 07:45:39;;;;;;;46.97;23.70;;;;;;;9.10;100.00;102495.50;4997042;28;20057;-68
2021/11/11 07:48:08;;;;;;;45.13;25.70;;;;;;;9.10;100.00;102493.72;4993814;28;20049;-68
2021/11/11 07:50:38;;;;;;;42.65;24.00;;;;;;;9.13;100.00;102493.72;4997771;28;20087;-69
2021/11/11 07:53:09;;;;;;;45.05;24.88;;;;;;;9.10;100.00;102498.16;4993010;28;20060;-68
2021/11/11 07:55:40;;;;;;;47.00;24.08;;;;;;;9.15;100.00;102507.03;4994771;28;20553;-68
2021/11/11 07:58:11;;;;;;;42.78;22.63;;;;;;;9.17;100.00;102502.59;4990450;28;20053;-68
2021/11/11 08:00:41;;;;;;;49.85;27.10;;;;;;;9.17;100.00;102499.94;4996465;28;20915;-68
2021/11/11 08:03:12;;;;;;;45.53;24.77;;;;;;;9.17;100.00;102494.59;4994492;28;20049;-68
2021/11/11 08:05:41;;;;;;;59.22;26.38;;;;;;;9.23;100.00;102504.34;4997966;28;20614;-68
2021/11/11 08:08:10;;;;;;;49.13;25.15;;;;;;;9.27;100.00;102500.81;4994879;28;20053;-68
2021/11/11 08:10:38;;;;;;;51.17;25.75;;;;;;;9.28;100.00;102492.84;4996261;28;20316;-69
2021/11/11 08:13:07;;;;;;;52.05;27.58;;;;;;;9.30;100.00;102491.06;4995098;28;20050;-68
2021/11/11 08:15:35;;;;;;;47.33;26.10;;;;;;;9.34;100.00;102490.16;4993110;28;20085;-68
2021/11/11 08:18:06;;;;;;;43.95;24.70;;;;;;;9.37;100.00;102486.63;4996725;28;20053;-68
2021/11/11 08:20:33;;;;;;;53.22;27.02;;;;;;;9.42;100.00;102484.84;4995024;28;20049;-68
2021/11/11 08:23:01;;;;;;;50.17;27.75;;;;;;;9.41;100.00;102485.72;4995536;28;20057;-68
2021/11/11 08:25:30;;;;;;;50.70;25.30;;;;;;;9.45;100.00;102476.84;4994210;28;20422;-68
2021/11/11 08:27:59;;;;;;;51.38;27.95;;;;;;;9.46;100.00;102480.38;4997326;28;20191;-68
2021/11/11 08:30:28;;;;;;;46.30;24.83;;;;;;;9.49;100.00;102478.59;4992638;28;20483;-67
2021/11/11 08:32:58;;;;;;;45.08;26.38;;;;;;;9.53;100.00;102484.81;4995287;28;20081;-68
2021/11/11 08:35:27;;;;;;;50.53;26.50;;;;;;;9.53;100.00;102490.13;4995321;28;20052;-69
2021/11/11 08:37:57;;;;;;;53.20;27.23;;;;;;;9.52;100.00;102481.25;4993469;28;20406;-67
2021/11/11 08:40:25;;;;;;;50.80;27.45;;;;;;;9.54;100.00;102489.25;4999760;28;20494;-69
2021/11/11 08:42:59;;;;;;;48.97;25.50;;;;;;;9.58;100.00;102488.34;4995045;28;20052;-68
2021/11/11 08:45:29;;;;;;;49.55;27.98;;;;;;;9.59;100.00;102491.94;4994620;28;20051;-68
2021/11/11 08:47:58;;;;;;;53.38;28.60;;;;;;;9.64;100.00;102493.69;4992769;28;20092;-68
2021/11/11 08:50:30;;;;;;;49.85;27.17;;;;;;;9.68;100.00;102492.78;4998607;28;20041;-69
2021/11/11 08:52:59;;;;;;;49.95;28.13;;;;;;;9.66;100.00;102489.22;4991508;28;20499;-76
2021/11/11 08:55:31;;;;;;;49.25;27.17;;;;;;;9.80;100.00;102488.31;4994518;28;20218;-76
2021/11/11 08:58:00;;;;;;;59.30;30.02;;;;;;;9.84;100.00;102500.72;4997480;28;20050;-75
2021/11/11 09:00:31;;;;;;;49.10;27.05;;;;;;;9.84;100.00;102495.41;4992015;28;20060;-75
2021/11/11 09:03:00;;;;;;;47.70;26.23;;;;;;;9.79;100.00;102499.84;5002291;28;20049;-76
2021/11/11 09:05:32;;;;;;;51.13;28.42;;;;;;;9.84;100.00;102498.97;4994805;28;20132;-75
2021/11/11 09:08:01;;;;;;;49.70;28.75;;;;;;;9.78;100.00;102498.09;4999678;28;20105;-75
2021/11/11 09:10:35;;;;;;;56.83;27.80;;;;;;;9.78;100.00;102498.97;4997125;28;20057;-76
2021/11/11 09:13:23;;;;;;;47.78;26.13;;;;;;;9.75;100.00;102501.66;5000352;28;20045;-75
2021/11/11 09:15:51;;;;;;;55.72;28.90;;;;;;;9.78;100.00;102506.09;4988932;28;20193;-75
2021/11/11 09:18:19;;;;;;;50.30;25.35;;;;;;;9.86;100.00;102501.66;4998535;28;20581;-75
2021/11/11 09:21:02;;;;;;;49.50;27.38;;;;;;;9.81;100.00;102509.66;4995999;28;20145;-75
2021/11/11 09:23:30;;;;;;;49.25;27.45;;;;;;;9.80;100.00;102505.19;4992928;28;20498;-77
2021/11/11 09:26:00;;;;;;;43.30;24.88;;;;;;;9.91;100.00;102500.72;4998084;28;20064;-77
2021/11/11 09:28:28;;;;;;;52.08;27.23;;;;;;;9.89;100.00;102509.59;4992876;28;20046;-75
2021/11/11 09:30:57;;;;;;;49.40;27.45;;;;;;;9.88;100.00;102511.41;4999487;28;20088;-78
2021/11/11 09:33:24;;;;;;;51.35;27.80;;;;;;;9.91;100.00;102513.19;4995985;28;20077;-75
2021/11/11 09:35:55;;;;;;;49.08;25.33;;;;;;;9.93;100.00;102513.16;4996964;28;20490;-75
2021/11/11 09:38:25;;;;;;;51.80;26.30;;;;;;;9.98;100.00;102512.28;4995069;28;20060;-75
2021/11/11 09:40:55;;;;;;;45.47;27.55;;;;;;;10.03;100.00;102510.47;4997600;28;20257;-75
2021/11/11 09:43:36;;;;;;;51.22;27.15;;;;;;;10.00;100.00;102507.81;4992348;28;21485;-75
2021/11/11 09:46:05;;;;;;;49.83;27.27;;;;;;;10.02;100.00;102502.47;4992991;28;20086;-77
2021/11/11 09:48:37;;;;;;;51.05;28.15;;;;;;;10.04;100.00;102506.91;5001553;28;20088;-75
2021/11/11 09:51:07;;;;;;;49.10;27.42;;;;;;;10.04;100.00;102509.56;4993261;28;20056;-75
2021/11/11 09:53:43;;;;;;;48.58;25.45;;;;;;;10.09;100.00;102506.88;4997597;28;20065;-75
2021/11/11 09:59:18;;;;;;;53.20;27.33;;;;;;;10.14;100.00;102505.09;4997944;28;20398;-75
2021/11/11 10:01:46;;;;;;;45.45;24.92;;;;;;;10.18;100.00;102511.28;4995515;28;20144;-75
2021/11/11 10:04:15;;;;;;;47.28;26.67;;;;;;;10.30;100.00;102513.94;4998903;28;20542;-75
2021/11/11 10:06:43;;;;;;;50.33;27.48;;;;;;;10.23;100.00;102513.06;4996829;28;20069;-75
2021/11/11 10:09:17;;;;;;;44.28;24.52;;;;;;;10.23;100.00;102517.50;4997983;28;20241;-74
2021/11/11 10:11:51;;;;;;;49.88;25.65;;;;;;;10.26;100.00;102522.84;5001069;28;20054;-75
2021/11/11 10:14:21;;;;;;;;;;;;;;;10.29;100.00;102518.38;4992422;28;20062;-76
2021/11/11 10:16:51;;;;;;;49.92;26.90;;;;;;;10.27;100.00;102519.28;4998064;28;20000;-75
2021/11/11 10:19:20;;;;;;;49.75;27.05;;;;;;;10.27;100.00;102516.63;4989741;28;20111;-75
2021/11/11 10:21:53;;;;;;;48.95;26.85;;;;;;;10.29;100.00;102525.50;4998096;28;20169;-76
2021/11/11 10:24:34;;;;;;;46.85;26.35;;;;;;;10.38;100.00;102524.59;4995408;28;20582;-75
2021/11/11 10:27:07;;;;;;;48.63;28.27;;;;;;;10.21;100.00;102525.50;4998393;28;20046;-74
2021/11/11 10:29:40;;;;;;;53.92;27.98;;;;;;;10.23;100.00;102523.75;4994005;28;20132;-75
2021/11/11 10:32:13;;;;;;;48.63;28.97;;;;;;;10.22;100.00;102519.28;4992720;28;20081;-75
2021/11/11 10:34:49;;;;;;;53.05;29.50;;;;;;;10.25;100.00;102518.41;4996671;28;20051;-76
2021/11/11 10:37:19;;;;;;;52.45;28.00;;;;;;;10.32;100.00;102517.53;4991951;28;20093;-76
2021/11/11 10:39:57;;;;;;;55.63;29.23;;;;;;;10.27;100.00;102514.81;4996302;28;20054;-76
2021/11/11 10:42:27;;;;;;;56.63;28.92;;;;;;;10.21;100.00;102512.16;4994066;28;20092;-76
2021/11/11 10:44:57;;;;;;;51.28;29.73;;;;;;;10.27;100.00;102508.63;4993815;28;20084;-76
2021/11/11 10:47:30;;;;;;;53.83;30.05;;;;;;;10.19;100.00;102507.75;4990854;28;20089;-74
2021/11/11 10:50:00;;;;;;;54.97;28.23;;;;;;;10.33;100.00;102502.38;4994388;28;20500;-74
2021/11/11 10:52:36;;;;;;;57.53;27.88;;;;;;;10.44;100.00;102495.22;4990290;28;20549;-74
2021/11/11 10:55:18;;;;;;;54.78;29.25;;;;;;;10.56;100.00;102502.28;4997706;28;20148;-74
2021/11/11 10:58:04;;;;;;;61.20;29.30;;;;;;;10.53;100.00;102496.94;4999138;28;20141;-74
2021/11/11 11:00:45;;;;;;;66.13;30.38;;;;;;;10.57;100.00;102499.59;4992016;28;20100;-75
2021/11/11 11:03:15;;;;;;;54.92;28.88;;;;;;;10.69;100.00;102501.28;4997945;28;20049;-75
2021/11/11 11:05:55;;;;;;;54.85;28.85;;;;;;;10.65;100.00;102500.44;4994963;28;20468;-76
2021/11/11 11:08:26;;;;;;;60.10;30.92;;;;;;;10.69;100.00;102501.28;4998087;28;21500;-75
2021/11/11 11:10:58;;;;;;;59.53;30.17;;;;;;;10.61;100.00;102506.69;4993932;28;20056;-75
2021/11/11 11:13:29;;;;;;;58.22;30.77;;;;;;;10.56;100.00;102510.28;4996403;28;20065;-75
2021/11/11 11:15:59;;;;;;;54.95;29.15;;;;;;;10.60;100.00;102512.91;4998800;28;20054;-68
2021/11/11 11:18:31;;;;;;;60.45;30.55;;;;;;;10.62;100.00;102515.56;4998205;28;20049;-68
2021/11/11 11:21:03;;;;;;;54.33;30.25;;;;;;;10.56;100.00;102515.63;4993273;28;20296;-68
2021/11/11 11:23:35;;;;;;;58.08;28.73;;;;;;;10.49;100.00;102513.88;4997204;28;20088;-68
2021/11/11 11:26:13;;;;;;;56.53;29.42;;;;;;;10.44;100.00;102500.56;4994690;28;20077;-68
2021/11/11 11:28:48;;;;;;;58.75;31.02;;;;;;;10.43;100.00;102493.44;4996822;28;20172;-69
2021/11/11 11:31:26;;;;;;;54.00;28.38;;;;;;;10.51;100.00;102493.41;4994840;28;20050;-68
2021/11/11 11:33:55;;;;;;;53.92;28.20;;;;;;;10.48;100.00;102496.09;4996897;28;20496;-69
2021/11/11 11:36:36;;;;;;;54.90;29.17;;;;;;;10.46;100.00;102496.09;4993121;28;20046;-69
2021/11/11 11:39:06;;;;;;;62.47;28.85;;;;;;;10.54;100.00;102504.03;4996657;28;20096;-68
2021/11/11 11:41:41;;;;;;;54.05;29.95;;;;;;;10.56;100.00;102507.63;4999573;28;20168;-68
2021/11/11 11:44:41;;;;;;;52.58;28.73;;;;;;;10.59;100.00;102500.47;4998550;28;20054;-68